sensor_id;sensor_type;location;lat;lon;timestamp;P1;durP1;ratioP1;P2;durP2;ratioP2
59790;SDS011;47431;51.640;5.554;2022-08-24T00:00:21;33.03;;;29.70;;
59790;SDS011;47431;51.640;5.554;2022-08-24T00:02:46;33.35;;;29.98;;
59790;SDS011;47431;51.640;5.554;2022-08-24T00:05:12;33.35;;;30.02;;
59790;SDS011;47431;51.640;5.554;2022-08-24T00:07:38;33.67;;;30.23;;
59790;SDS011;47431;51.640;5.554;2022-08-24T00:10:06;33.45;;;29.88;;
59790;SDS011;47431;51.640;5.554;2022-08-24T00:12:32;38.00;;;34.17;;
59790;SDS011;47431;51.640;5.554;2022-08-24T00:14:57;38.20;;;34.63;;
59790;SDS011;47431;51.640;5.554;2022-08-24T00:17:22;37.83;;;32.08;;
59790;SDS011;47431;51.640;5.554;2022-08-24T00:19:48;36.25;;;32.90;;
59790;SDS011;47431;51.640;5.554;2022-08-24T00:22:13;37.05;;;33.08;;
59790;SDS011;47431;51.640;5.554;2022-08-24T00:24:38;37.10;;;33.28;;
59790;SDS011;47431;51.640;5.554;2022-08-24T00:27:04;37.72;;;34.00;;
59790;SDS011;47431;51.640;5.554;2022-08-24T00:29:30;38.28;;;34.15;;
59790;SDS011;47431;51.640;5.554;2022-08-24T00:31:55;31.63;;;28.23;;
59790;SDS011;47431;51.640;5.554;2022-08-24T00:34:21;34.97;;;31.27;;
59790;SDS011;47431;51.640;5.554;2022-08-24T00:36:46;36.70;;;32.60;;
59790;SDS011;47431;51.640;5.554;2022-08-24T00:39:11;37.75;;;33.88;;
59790;SDS011;47431;51.640;5.554;2022-08-24T00:41:43;38.88;;;34.90;;
59790;SDS011;47431;51.640;5.554;2022-08-24T00:44:09;38.40;;;34.47;;
59790;SDS011;47431;51.640;5.554;2022-08-24T00:46:46;38.38;;;34.67;;
59790;SDS011;47431;51.640;5.554;2022-08-24T00:49:34;44.92;;;40.08;;
59790;SDS011;47431;51.640;5.554;2022-08-24T00:54:54;39.38;;;35.58;;
59790;SDS011;47431;51.640;5.554;2022-08-24T00:57:22;38.10;;;34.38;;
59790;SDS011;47431;51.640;5.554;2022-08-24T00:59:50;41.30;;;31.95;;
59790;SDS011;47431;51.640;5.554;2022-08-24T01:02:17;38.92;;;34.58;;
59790;SDS011;47431;51.640;5.554;2022-08-24T01:04:51;36.22;;;32.63;;
59790;SDS011;47431;51.640;5.554;2022-08-24T01:07:17;34.78;;;31.27;;
59790;SDS011;47431;51.640;5.554;2022-08-24T01:09:44;39.67;;;35.65;;
59790;SDS011;47431;51.640;5.554;2022-08-24T01:12:10;37.20;;;32.95;;
59790;SDS011;47431;51.640;5.554;2022-08-24T01:14:35;37.10;;;33.55;;
59790;SDS011;47431;51.640;5.554;2022-08-24T01:17:01;40.25;;;35.95;;
59790;SDS011;47431;51.640;5.554;2022-08-24T01:19:49;38.83;;;35.03;;
59790;SDS011;47431;51.640;5.554;2022-08-24T01:22:36;27.48;;;24.60;;
59790;SDS011;47431;51.640;5.554;2022-08-24T01:25:02;21.75;;;19.85;;
59790;SDS011;47431;51.640;5.554;2022-08-24T01:27:27;28.10;;;25.20;;
59790;SDS011;47431;51.640;5.554;2022-08-24T01:29:53;25.92;;;23.50;;
59790;SDS011;47431;51.640;5.554;2022-08-24T01:32:22;33.97;;;30.25;;
59790;SDS011;47431;51.640;5.554;2022-08-24T01:34:47;40.22;;;36.03;;
59790;SDS011;47431;51.640;5.554;2022-08-24T01:37:13;37.35;;;33.67;;
59790;SDS011;47431;51.640;5.554;2022-08-24T01:39:39;34.65;;;31.38;;
59790;SDS011;47431;51.640;5.554;2022-08-24T01:42:05;38.15;;;34.30;;
59790;SDS011;47431;51.640;5.554;2022-08-24T01:44:31;38.42;;;34.42;;
59790;SDS011;47431;51.640;5.554;2022-08-24T01:46:59;41.38;;;37.13;;
59790;SDS011;47431;51.640;5.554;2022-08-24T01:49:26;41.63;;;37.53;;
59790;SDS011;47431;51.640;5.554;2022-08-24T01:51:52;40.17;;;34.83;;
59790;SDS011;47431;51.640;5.554;2022-08-24T01:54:17;40.45;;;36.28;;
59790;SDS011;47431;51.640;5.554;2022-08-24T01:56:43;37.15;;;33.10;;
59790;SDS011;47431;51.640;5.554;2022-08-24T01:59:08;46.35;;;38.78;;
59790;SDS011;47431;51.640;5.554;2022-08-24T02:01:39;43.35;;;38.17;;
59790;SDS011;47431;51.640;5.554;2022-08-24T02:06:31;49.67;;;44.50;;
59790;SDS011;47431;51.640;5.554;2022-08-24T02:08:57;47.78;;;43.05;;
59790;SDS011;47431;51.640;5.554;2022-08-24T02:11:22;40.10;;;36.00;;
59790;SDS011;47431;51.640;5.554;2022-08-24T02:13:48;40.58;;;36.60;;
59790;SDS011;47431;51.640;5.554;2022-08-24T02:16:13;41.45;;;37.17;;
59790;SDS011;47431;51.640;5.554;2022-08-24T02:18:39;46.70;;;41.90;;
59790;SDS011;47431;51.640;5.554;2022-08-24T02:21:05;46.35;;;41.70;;
59790;SDS011;47431;51.640;5.554;2022-08-24T02:23:30;44.17;;;39.65;;
59790;SDS011;47431;51.640;5.554;2022-08-24T02:25:56;51.45;;;32.38;;
59790;SDS011;47431;51.640;5.554;2022-08-24T02:28:21;31.27;;;28.13;;
59790;SDS011;47431;51.640;5.554;2022-08-24T02:30:46;27.85;;;25.15;;
59790;SDS011;47431;51.640;5.554;2022-08-24T02:33:12;52.13;;;34.92;;
59790;SDS011;47431;51.640;5.554;2022-08-24T02:35:37;26.17;;;23.33;;
59790;SDS011;47431;51.640;5.554;2022-08-24T02:38:02;27.70;;;24.58;;
59790;SDS011;47431;51.640;5.554;2022-08-24T02:40:27;30.60;;;27.45;;
59790;SDS011;47431;51.640;5.554;2022-08-24T02:42:53;36.78;;;33.10;;
59790;SDS011;47431;51.640;5.554;2022-08-24T02:45:19;36.92;;;33.20;;
59790;SDS011;47431;51.640;5.554;2022-08-24T02:47:44;38.37;;;34.53;;
59790;SDS011;47431;51.640;5.554;2022-08-24T02:50:11;39.08;;;35.20;;
59790;SDS011;47431;51.640;5.554;2022-08-24T02:52:36;44.05;;;39.45;;
59790;SDS011;47431;51.640;5.554;2022-08-24T02:55:03;43.35;;;38.97;;
59790;SDS011;47431;51.640;5.554;2022-08-24T02:57:29;45.28;;;40.80;;
59790;SDS011;47431;51.640;5.554;2022-08-24T02:59:54;309.03;;;46.53;;
59790;SDS011;47431;51.640;5.554;2022-08-24T03:02:19;85.88;;;34.65;;
59790;SDS011;47431;51.640;5.554;2022-08-24T03:04:44;59.30;;;22.23;;
59790;SDS011;47431;51.640;5.554;2022-08-24T03:07:10;21.00;;;19.20;;
59790;SDS011;47431;51.640;5.554;2022-08-24T03:09:35;25.40;;;22.88;;
59790;SDS011;47431;51.640;5.554;2022-08-24T03:12:00;28.83;;;25.55;;
59790;SDS011;47431;51.640;5.554;2022-08-24T03:14:26;102.07;;;34.08;;
59790;SDS011;47431;51.640;5.554;2022-08-24T03:16:51;51.13;;;33.45;;
59790;SDS011;47431;51.640;5.554;2022-08-24T03:19:16;35.60;;;31.90;;
59790;SDS011;47431;51.640;5.554;2022-08-24T03:21:41;34.50;;;31.10;;
59790;SDS011;47431;51.640;5.554;2022-08-24T03:24:07;32.92;;;29.77;;
59790;SDS011;47431;51.640;5.554;2022-08-24T03:26:32;37.08;;;33.60;;
59790;SDS011;47431;51.640;5.554;2022-08-24T03:28:58;34.75;;;31.20;;
59790;SDS011;47431;51.640;5.554;2022-08-24T03:31:23;40.20;;;36.45;;
59790;SDS011;47431;51.640;5.554;2022-08-24T03:33:48;34.72;;;31.17;;
59790;SDS011;47431;51.640;5.554;2022-08-24T03:36:13;31.20;;;28.38;;
59790;SDS011;47431;51.640;5.554;2022-08-24T03:38:39;34.10;;;31.00;;
59790;SDS011;47431;51.640;5.554;2022-08-24T03:41:05;37.17;;;33.38;;
59790;SDS011;47431;51.640;5.554;2022-08-24T03:43:30;35.28;;;31.95;;
59790;SDS011;47431;51.640;5.554;2022-08-24T03:46:11;36.45;;;27.15;;
59790;SDS011;47431;51.640;5.554;2022-08-24T03:48:37;20.60;;;18.60;;
59790;SDS011;47431;51.640;5.554;2022-08-24T03:51:04;20.23;;;18.42;;
59790;SDS011;47431;51.640;5.554;2022-08-24T03:53:29;23.98;;;21.75;;
59790;SDS011;47431;51.640;5.554;2022-08-24T03:55:54;31.42;;;28.73;;
59790;SDS011;47431;51.640;5.554;2022-08-24T03:58:20;30.45;;;27.50;;
59790;SDS011;47431;51.640;5.554;2022-08-24T04:00:45;31.90;;;28.90;;
59790;SDS011;47431;51.640;5.554;2022-08-24T04:03:10;33.83;;;30.48;;
59790;SDS011;47431;51.640;5.554;2022-08-24T04:05:36;32.60;;;29.30;;
59790;SDS011;47431;51.640;5.554;2022-08-24T04:08:03;30.80;;;28.00;;
59790;SDS011;47431;51.640;5.554;2022-08-24T04:10:28;29.05;;;26.65;;
59790;SDS011;47431;51.640;5.554;2022-08-24T04:12:53;33.05;;;29.80;;
59790;SDS011;47431;51.640;5.554;2022-08-24T04:15:19;41.60;;;37.70;;
59790;SDS011;47431;51.640;5.554;2022-08-24T04:17:44;44.38;;;39.92;;
59790;SDS011;47431;51.640;5.554;2022-08-24T04:20:09;37.97;;;34.20;;
59790;SDS011;47431;51.640;5.554;2022-08-24T04:22:34;38.38;;;34.22;;
59790;SDS011;47431;51.640;5.554;2022-08-24T04:25:00;40.10;;;36.20;;
59790;SDS011;47431;51.640;5.554;2022-08-24T04:27:26;44.60;;;39.97;;
59790;SDS011;47431;51.640;5.554;2022-08-24T04:29:51;43.30;;;38.88;;
59790;SDS011;47431;51.640;5.554;2022-08-24T04:32:17;41.30;;;36.97;;
59790;SDS011;47431;51.640;5.554;2022-08-24T04:34:42;40.97;;;36.88;;
59790;SDS011;47431;51.640;5.554;2022-08-24T04:37:08;35.45;;;32.15;;
59790;SDS011;47431;51.640;5.554;2022-08-24T04:39:33;37.92;;;34.28;;
59790;SDS011;47431;51.640;5.554;2022-08-24T04:41:58;42.92;;;38.35;;
59790;SDS011;47431;51.640;5.554;2022-08-24T04:44:24;43.45;;;39.10;;
59790;SDS011;47431;51.640;5.554;2022-08-24T04:46:49;46.95;;;41.97;;
59790;SDS011;47431;51.640;5.554;2022-08-24T04:49:14;222.98;;;38.58;;
59790;SDS011;47431;51.640;5.554;2022-08-24T04:51:39;219.50;;;38.55;;
59790;SDS011;47431;51.640;5.554;2022-08-24T04:54:05;37.25;;;33.38;;
59790;SDS011;47431;51.640;5.554;2022-08-24T04:56:31;37.63;;;34.08;;
59790;SDS011;47431;51.640;5.554;2022-08-24T04:58:57;45.63;;;38.35;;
59790;SDS011;47431;51.640;5.554;2022-08-24T05:01:23;102.60;;;44.38;;
59790;SDS011;47431;51.640;5.554;2022-08-24T05:03:50;64.72;;;45.42;;
59790;SDS011;47431;51.640;5.554;2022-08-24T05:06:16;42.85;;;38.55;;
59790;SDS011;47431;51.640;5.554;2022-08-24T05:08:42;44.35;;;39.78;;
59790;SDS011;47431;51.640;5.554;2022-08-24T05:11:07;45.72;;;41.13;;
59790;SDS011;47431;51.640;5.554;2022-08-24T05:13:35;46.97;;;42.00;;
59790;SDS011;47431;51.640;5.554;2022-08-24T05:16:04;43.83;;;39.38;;
59790;SDS011;47431;51.640;5.554;2022-08-24T05:18:30;46.72;;;41.85;;
59790;SDS011;47431;51.640;5.554;2022-08-24T05:20:57;48.28;;;43.15;;
59790;SDS011;47431;51.640;5.554;2022-08-24T05:23:23;50.65;;;44.28;;
59790;SDS011;47431;51.640;5.554;2022-08-24T05:25:48;58.17;;;46.78;;
59790;SDS011;47431;51.640;5.554;2022-08-24T05:28:13;49.35;;;43.58;;
59790;SDS011;47431;51.640;5.554;2022-08-24T05:30:38;48.17;;;43.75;;
59790;SDS011;47431;51.640;5.554;2022-08-24T05:33:04;42.78;;;38.97;;
59790;SDS011;47431;51.640;5.554;2022-08-24T05:35:29;45.20;;;40.80;;
59790;SDS011;47431;51.640;5.554;2022-08-24T05:37:54;51.72;;;41.40;;
59790;SDS011;47431;51.640;5.554;2022-08-24T05:40:19;42.92;;;38.83;;
59790;SDS011;47431;51.640;5.554;2022-08-24T05:42:45;44.45;;;39.78;;
59790;SDS011;47431;51.640;5.554;2022-08-24T05:45:10;46.25;;;41.45;;
59790;SDS011;47431;51.640;5.554;2022-08-24T05:47:36;46.80;;;42.40;;
59790;SDS011;47431;51.640;5.554;2022-08-24T05:50:02;50.15;;;45.55;;
59790;SDS011;47431;51.640;5.554;2022-08-24T05:52:27;50.78;;;46.05;;
59790;SDS011;47431;51.640;5.554;2022-08-24T05:54:57;53.83;;;48.70;;
59790;SDS011;47431;51.640;5.554;2022-08-24T05:57:23;55.40;;;50.20;;
59790;SDS011;47431;51.640;5.554;2022-08-24T05:59:49;51.80;;;46.70;;
59790;SDS011;47431;51.640;5.554;2022-08-24T06:02:15;60.75;;;54.42;;
59790;SDS011;47431;51.640;5.554;2022-08-24T06:04:40;62.70;;;56.85;;
59790;SDS011;47431;51.640;5.554;2022-08-24T06:07:06;60.58;;;54.60;;
59790;SDS011;47431;51.640;5.554;2022-08-24T06:09:34;54.35;;;49.35;;
59790;SDS011;47431;51.640;5.554;2022-08-24T06:12:00;57.88;;;52.20;;
59790;SDS011;47431;51.640;5.554;2022-08-24T06:14:25;67.72;;;61.17;;
59790;SDS011;47431;51.640;5.554;2022-08-24T06:16:50;64.60;;;58.58;;
59790;SDS011;47431;51.640;5.554;2022-08-24T06:19:17;72.10;;;60.40;;
59790;SDS011;47431;51.640;5.554;2022-08-24T06:21:43;63.42;;;57.15;;
59790;SDS011;47431;51.640;5.554;2022-08-24T06:24:10;68.43;;;61.25;;
59790;SDS011;47431;51.640;5.554;2022-08-24T06:26:36;67.47;;;61.08;;
59790;SDS011;47431;51.640;5.554;2022-08-24T06:29:20;70.10;;;62.80;;
59790;SDS011;47431;51.640;5.554;2022-08-24T06:31:46;69.47;;;61.95;;
59790;SDS011;47431;51.640;5.554;2022-08-24T06:34:13;69.55;;;62.08;;
59790;SDS011;47431;51.640;5.554;2022-08-24T06:36:38;67.70;;;60.80;;
59790;SDS011;47431;51.640;5.554;2022-08-24T06:39:04;69.07;;;61.72;;
59790;SDS011;47431;51.640;5.554;2022-08-24T06:41:29;61.95;;;55.50;;
59790;SDS011;47431;51.640;5.554;2022-08-24T06:43:54;66.47;;;59.38;;
59790;SDS011;47431;51.640;5.554;2022-08-24T06:46:20;61.15;;;53.25;;
59790;SDS011;47431;51.640;5.554;2022-08-24T06:48:45;60.80;;;54.47;;
59790;SDS011;47431;51.640;5.554;2022-08-24T06:51:11;52.45;;;47.00;;
59790;SDS011;47431;51.640;5.554;2022-08-24T06:53:37;53.78;;;47.67;;
59790;SDS011;47431;51.640;5.554;2022-08-24T06:56:03;54.45;;;48.90;;
59790;SDS011;47431;51.640;5.554;2022-08-24T06:58:29;56.58;;;49.10;;
59790;SDS011;47431;51.640;5.554;2022-08-24T07:00:56;54.83;;;48.88;;
59790;SDS011;47431;51.640;5.554;2022-08-24T07:03:22;52.55;;;47.25;;
59790;SDS011;47431;51.640;5.554;2022-08-24T07:05:51;49.42;;;44.58;;
59790;SDS011;47431;51.640;5.554;2022-08-24T07:08:17;45.13;;;40.53;;
59790;SDS011;47431;51.640;5.554;2022-08-24T07:10:42;64.43;;;42.67;;
59790;SDS011;47431;51.640;5.554;2022-08-24T07:13:07;43.47;;;38.97;;
59790;SDS011;47431;51.640;5.554;2022-08-24T07:15:35;45.10;;;40.55;;
59790;SDS011;47431;51.640;5.554;2022-08-24T07:18:00;40.33;;;36.13;;
59790;SDS011;47431;51.640;5.554;2022-08-24T07:20:28;41.20;;;36.03;;
59790;SDS011;47431;51.640;5.554;2022-08-24T07:22:53;35.28;;;31.25;;
59790;SDS011;47431;51.640;5.554;2022-08-24T07:25:19;41.13;;;36.75;;
59790;SDS011;47431;51.640;5.554;2022-08-24T07:27:44;34.05;;;30.48;;
59790;SDS011;47431;51.640;5.554;2022-08-24T07:30:10;36.63;;;32.30;;
59790;SDS011;47431;51.640;5.554;2022-08-24T07:32:35;37.35;;;31.70;;
59790;SDS011;47431;51.640;5.554;2022-08-24T07:35:00;33.63;;;30.25;;
59790;SDS011;47431;51.640;5.554;2022-08-24T07:37:25;34.20;;;30.60;;
59790;SDS011;47431;51.640;5.554;2022-08-24T07:39:51;31.33;;;28.08;;
59790;SDS011;47431;51.640;5.554;2022-08-24T07:42:16;34.03;;;30.08;;
59790;SDS011;47431;51.640;5.554;2022-08-24T07:44:41;34.67;;;29.83;;
59790;SDS011;47431;51.640;5.554;2022-08-24T07:47:07;31.95;;;28.67;;
59790;SDS011;47431;51.640;5.554;2022-08-24T07:49:32;32.07;;;28.60;;
59790;SDS011;47431;51.640;5.554;2022-08-24T07:51:57;30.05;;;26.02;;
59790;SDS011;47431;51.640;5.554;2022-08-24T07:54:23;30.00;;;26.88;;
59790;SDS011;47431;51.640;5.554;2022-08-24T07:56:48;27.75;;;24.95;;
59790;SDS011;47431;51.640;5.554;2022-08-24T07:59:14;26.52;;;23.70;;
59790;SDS011;47431;51.640;5.554;2022-08-24T08:01:39;30.83;;;26.20;;
59790;SDS011;47431;51.640;5.554;2022-08-24T08:04:05;28.70;;;25.85;;
59790;SDS011;47431;51.640;5.554;2022-08-24T08:06:30;27.83;;;24.35;;
59790;SDS011;47431;51.640;5.554;2022-08-24T08:08:55;29.23;;;26.08;;
59790;SDS011;47431;51.640;5.554;2022-08-24T08:11:21;26.63;;;23.58;;
59790;SDS011;47431;51.640;5.554;2022-08-24T08:13:47;28.00;;;22.42;;
59790;SDS011;47431;51.640;5.554;2022-08-24T08:16:12;25.67;;;23.13;;
59790;SDS011;47431;51.640;5.554;2022-08-24T08:18:37;24.65;;;22.23;;
59790;SDS011;47431;51.640;5.554;2022-08-24T08:21:03;27.60;;;21.67;;
59790;SDS011;47431;51.640;5.554;2022-08-24T08:23:28;20.58;;;18.55;;
59790;SDS011;47431;51.640;5.554;2022-08-24T08:26:14;20.48;;;18.33;;
59790;SDS011;47431;51.640;5.554;2022-08-24T08:28:39;19.30;;;16.58;;
59790;SDS011;47431;51.640;5.554;2022-08-24T08:31:06;19.17;;;15.93;;
59790;SDS011;47431;51.640;5.554;2022-08-24T08:33:32;21.55;;;17.35;;
59790;SDS011;47431;51.640;5.554;2022-08-24T08:36:07;17.90;;;15.95;;
59790;SDS011;47431;51.640;5.554;2022-08-24T08:38:33;21.05;;;16.88;;
59790;SDS011;47431;51.640;5.554;2022-08-24T08:41:17;18.20;;;16.25;;
59790;SDS011;47431;51.640;5.554;2022-08-24T08:43:49;17.02;;;14.63;;
59790;SDS011;47431;51.640;5.554;2022-08-24T08:52:00;20.98;;;13.48;;
59790;SDS011;47431;51.640;5.554;2022-08-24T08:59:53;15.13;;;12.60;;
59790;SDS011;47431;51.640;5.554;2022-08-24T09:02:26;12.60;;;10.52;;
59790;SDS011;47431;51.640;5.554;2022-08-24T09:13:06;15.07;;;13.55;;
59790;SDS011;47431;51.640;5.554;2022-08-24T09:25:44;7.15;;;4.93;;
59790;SDS011;47431;51.640;5.554;2022-08-24T09:28:26;10.80;;;7.90;;
59790;SDS011;47431;51.640;5.554;2022-08-24T09:33:35;11.52;;;7.85;;
59790;SDS011;47431;51.640;5.554;2022-08-24T09:49:17;9.97;;;5.43;;
59790;SDS011;47431;51.640;5.554;2022-08-24T10:02:24;6.00;;;3.00;;
59790;SDS011;47431;51.640;5.554;2022-08-24T10:07:21;4.03;;;1.93;;
59790;SDS011;47431;51.640;5.554;2022-08-24T10:09:54;4.88;;;2.80;;
59790;SDS011;47431;51.640;5.554;2022-08-24T10:12:38;6.40;;;2.53;;
59790;SDS011;47431;51.640;5.554;2022-08-24T10:15:14;4.63;;;2.50;;
59790;SDS011;47431;51.640;5.554;2022-08-24T10:20:26;8.23;;;2.47;;
59790;SDS011;47431;51.640;5.554;2022-08-24T10:33:10;7.65;;;2.38;;
59790;SDS011;47431;51.640;5.554;2022-08-24T10:46:29;5.85;;;1.70;;
59790;SDS011;47431;51.640;5.554;2022-08-24T10:51:48;6.45;;;1.90;;
59790;SDS011;47431;51.640;5.554;2022-08-24T10:54:17;4.90;;;1.45;;
59790;SDS011;47431;51.640;5.554;2022-08-24T10:59:33;5.53;;;2.28;;
59790;SDS011;47431;51.640;5.554;2022-08-24T11:02:08;5.30;;;2.25;;
59790;SDS011;47431;51.640;5.554;2022-08-24T11:04:34;7.45;;;3.15;;
59790;SDS011;47431;51.640;5.554;2022-08-24T11:09:55;5.47;;;2.17;;
59790;SDS011;47431;51.640;5.554;2022-08-24T11:14:49;3.75;;;1.98;;
59790;SDS011;47431;51.640;5.554;2022-08-24T11:17:18;4.00;;;2.10;;
59790;SDS011;47431;51.640;5.554;2022-08-24T11:19:44;8.13;;;2.30;;
59790;SDS011;47431;51.640;5.554;2022-08-24T11:24:56;5.13;;;2.58;;
59790;SDS011;47431;51.640;5.554;2022-08-24T11:34:53;4.60;;;1.88;;
59790;SDS011;47431;51.640;5.554;2022-08-24T11:37:22;4.57;;;1.70;;
59790;SDS011;47431;51.640;5.554;2022-08-24T11:39:48;4.40;;;1.92;;
59790;SDS011;47431;51.640;5.554;2022-08-24T11:45:06;6.38;;;2.20;;
59790;SDS011;47431;51.640;5.554;2022-08-24T11:50:12;5.25;;;1.95;;
59790;SDS011;47431;51.640;5.554;2022-08-24T11:55:56;4.55;;;2.10;;
59790;SDS011;47431;51.640;5.554;2022-08-24T11:58:02;5.38;;;1.98;;
59790;SDS011;47431;51.640;5.554;2022-08-24T12:01:12;6.55;;;2.10;;
59790;SDS011;47431;51.640;5.554;2022-08-24T12:05:47;6.13;;;1.98;;
59790;SDS011;47431;51.640;5.554;2022-08-24T12:08:20;5.50;;;2.85;;
59790;SDS011;47431;51.640;5.554;2022-08-24T12:10:50;4.68;;;2.47;;
59790;SDS011;47431;51.640;5.554;2022-08-24T12:13:35;5.85;;;2.53;;
59790;SDS011;47431;51.640;5.554;2022-08-24T12:16:10;8.02;;;2.38;;
59790;SDS011;47431;51.640;5.554;2022-08-24T12:18:56;5.93;;;2.60;;
59790;SDS011;47431;51.640;5.554;2022-08-24T12:21:24;4.78;;;2.28;;
59790;SDS011;47431;51.640;5.554;2022-08-24T12:23:53;7.15;;;2.90;;
59790;SDS011;47431;51.640;5.554;2022-08-24T12:26:43;9.32;;;3.08;;
59790;SDS011;47431;51.640;5.554;2022-08-24T12:34:02;10.32;;;3.25;;
59790;SDS011;47431;51.640;5.554;2022-08-24T12:36:42;5.70;;;2.75;;
59790;SDS011;47431;51.640;5.554;2022-08-24T12:39:10;9.20;;;2.75;;
59790;SDS011;47431;51.640;5.554;2022-08-24T12:41:52;7.10;;;3.75;;
59790;SDS011;47431;51.640;5.554;2022-08-24T12:44:18;5.28;;;2.63;;
59790;SDS011;47431;51.640;5.554;2022-08-24T12:46:50;5.82;;;2.85;;
59790;SDS011;47431;51.640;5.554;2022-08-24T12:49:24;6.57;;;2.80;;
59790;SDS011;47431;51.640;5.554;2022-08-24T12:56:57;7.82;;;3.33;;
59790;SDS011;47431;51.640;5.554;2022-08-24T12:59:27;7.50;;;2.50;;
59790;SDS011;47431;51.640;5.554;2022-08-24T13:09:26;6.15;;;3.55;;
59790;SDS011;47431;51.640;5.554;2022-08-24T13:11:52;11.35;;;3.28;;
59790;SDS011;47431;51.640;5.554;2022-08-24T13:14:20;5.70;;;3.25;;
59790;SDS011;47431;51.640;5.554;2022-08-24T13:16:51;13.70;;;3.15;;
59790;SDS011;47431;51.640;5.554;2022-08-24T13:19:31;13.10;;;4.18;;
59790;SDS011;47431;51.640;5.554;2022-08-24T13:21:58;7.93;;;3.05;;
59790;SDS011;47431;51.640;5.554;2022-08-24T13:26:55;6.07;;;2.50;;
59790;SDS011;47431;51.640;5.554;2022-08-24T13:29:21;5.88;;;3.00;;
59790;SDS011;47431;51.640;5.554;2022-08-24T13:31:49;6.18;;;2.38;;
59790;SDS011;47431;51.640;5.554;2022-08-24T13:36:51;5.13;;;2.92;;
59790;SDS011;47431;51.640;5.554;2022-08-24T13:46:55;5.97;;;2.27;;
59790;SDS011;47431;51.640;5.554;2022-08-24T13:49:28;4.32;;;2.35;;
59790;SDS011;47431;51.640;5.554;2022-08-24T13:52:11;14.70;;;3.10;;
59790;SDS011;47431;51.640;5.554;2022-08-24T13:54:44;4.68;;;2.28;;
59790;SDS011;47431;51.640;5.554;2022-08-24T14:20:39;6.72;;;2.30;;
59790;SDS011;47431;51.640;5.554;2022-08-24T14:23:25;6.78;;;2.35;;
59790;SDS011;47431;51.640;5.554;2022-08-24T14:28:39;8.65;;;2.53;;
59790;SDS011;47431;51.640;5.554;2022-08-24T14:36:28;5.50;;;2.97;;
59790;SDS011;47431;51.640;5.554;2022-08-24T14:39:05;7.82;;;2.55;;
59790;SDS011;47431;51.640;5.554;2022-08-24T14:41:34;4.90;;;2.38;;
59790;SDS011;47431;51.640;5.554;2022-08-24T14:52:58;6.22;;;2.30;;
59790;SDS011;47431;51.640;5.554;2022-08-24T14:54:55;5.60;;;2.60;;
59790;SDS011;47431;51.640;5.554;2022-08-24T15:04:50;6.77;;;2.87;;
59790;SDS011;47431;51.640;5.554;2022-08-24T15:09:45;8.65;;;2.80;;
59790;SDS011;47431;51.640;5.554;2022-08-24T15:14:57;4.38;;;2.25;;
59790;SDS011;47431;51.640;5.554;2022-08-24T15:17:28;7.07;;;2.67;;
59790;SDS011;47431;51.640;5.554;2022-08-24T15:20:14;5.90;;;2.70;;
59790;SDS011;47431;51.640;5.554;2022-08-24T15:25:10;6.82;;;2.65;;
59790;SDS011;47431;51.640;5.554;2022-08-24T15:27:44;6.57;;;2.97;;
59790;SDS011;47431;51.640;5.554;2022-08-24T15:30:19;7.03;;;2.80;;
59790;SDS011;47431;51.640;5.554;2022-08-24T15:32:46;5.22;;;3.20;;
59790;SDS011;47431;51.640;5.554;2022-08-24T15:37:47;10.85;;;2.50;;
59790;SDS011;47431;51.640;5.554;2022-08-24T15:40:17;4.90;;;2.27;;
59790;SDS011;47431;51.640;5.554;2022-08-24T15:42:45;6.43;;;2.60;;
59790;SDS011;47431;51.640;5.554;2022-08-24T15:45:11;6.45;;;2.53;;
59790;SDS011;47431;51.640;5.554;2022-08-24T15:47:37;7.93;;;2.63;;
59790;SDS011;47431;51.640;5.554;2022-08-24T15:57:48;8.73;;;2.40;;
59790;SDS011;47431;51.640;5.554;2022-08-24T16:00:15;7.17;;;2.03;;
59790;SDS011;47431;51.640;5.554;2022-08-24T16:03:18;7.03;;;3.38;;
59790;SDS011;47431;51.640;5.554;2022-08-24T16:05:43;9.07;;;3.10;;
59790;SDS011;47431;51.640;5.554;2022-08-24T16:08:09;8.63;;;2.30;;
59790;SDS011;47431;51.640;5.554;2022-08-24T16:18:09;5.15;;;1.92;;
59790;SDS011;47431;51.640;5.554;2022-08-24T16:20:34;7.22;;;2.92;;
59790;SDS011;47431;51.640;5.554;2022-08-24T16:23:05;7.72;;;2.45;;
59790;SDS011;47431;51.640;5.554;2022-08-24T16:30:24;4.13;;;2.20;;
59790;SDS011;47431;51.640;5.554;2022-08-24T16:32:51;7.70;;;2.90;;
59790;SDS011;47431;51.640;5.554;2022-08-24T16:35:18;4.03;;;2.08;;
59790;SDS011;47431;51.640;5.554;2022-08-24T16:37:44;8.80;;;2.65;;
59790;SDS011;47431;51.640;5.554;2022-08-24T16:40:09;4.40;;;2.47;;
59790;SDS011;47431;51.640;5.554;2022-08-24T16:42:35;4.32;;;1.90;;
59790;SDS011;47431;51.640;5.554;2022-08-24T16:45:01;7.45;;;2.80;;
59790;SDS011;47431;51.640;5.554;2022-08-24T16:47:28;7.95;;;2.75;;
59790;SDS011;47431;51.640;5.554;2022-08-24T16:49:53;5.00;;;2.10;;
59790;SDS011;47431;51.640;5.554;2022-08-24T16:52:18;5.60;;;2.67;;
59790;SDS011;47431;51.640;5.554;2022-08-24T16:54:44;7.93;;;2.53;;
59790;SDS011;47431;51.640;5.554;2022-08-24T16:57:11;5.38;;;2.40;;
59790;SDS011;47431;51.640;5.554;2022-08-24T16:59:37;4.15;;;2.17;;
59790;SDS011;47431;51.640;5.554;2022-08-24T17:02:03;5.93;;;2.30;;
59790;SDS011;47431;51.640;5.554;2022-08-24T17:04:28;12.83;;;2.83;;
59790;SDS011;47431;51.640;5.554;2022-08-24T17:06:53;7.40;;;2.60;;
59790;SDS011;47431;51.640;5.554;2022-08-24T17:09:19;7.60;;;3.00;;
59790;SDS011;47431;51.640;5.554;2022-08-24T17:11:45;5.47;;;2.63;;
59790;SDS011;47431;51.640;5.554;2022-08-24T17:14:11;5.47;;;2.00;;
59790;SDS011;47431;51.640;5.554;2022-08-24T17:16:36;4.57;;;2.53;;
59790;SDS011;47431;51.640;5.554;2022-08-24T17:19:04;9.85;;;2.40;;
59790;SDS011;47431;51.640;5.554;2022-08-24T17:21:30;11.98;;;2.72;;
59790;SDS011;47431;51.640;5.554;2022-08-24T17:23:55;4.55;;;2.13;;
59790;SDS011;47431;51.640;5.554;2022-08-24T17:26:20;9.17;;;2.67;;
59790;SDS011;47431;51.640;5.554;2022-08-24T17:28:46;6.55;;;3.08;;
59790;SDS011;47431;51.640;5.554;2022-08-24T17:31:11;5.53;;;2.53;;
59790;SDS011;47431;51.640;5.554;2022-08-24T17:33:37;6.97;;;2.90;;
59790;SDS011;47431;51.640;5.554;2022-08-24T17:36:03;5.30;;;2.20;;
59790;SDS011;47431;51.640;5.554;2022-08-24T17:38:29;8.40;;;2.33;;
59790;SDS011;47431;51.640;5.554;2022-08-24T17:40:55;8.82;;;2.85;;
59790;SDS011;47431;51.640;5.554;2022-08-24T17:43:20;11.23;;;2.88;;
59790;SDS011;47431;51.640;5.554;2022-08-24T17:45:45;5.57;;;2.73;;
59790;SDS011;47431;51.640;5.554;2022-08-24T17:48:12;9.97;;;3.67;;
59790;SDS011;47431;51.640;5.554;2022-08-24T17:50:39;5.25;;;2.80;;
59790;SDS011;47431;51.640;5.554;2022-08-24T17:53:04;6.87;;;2.93;;
59790;SDS011;47431;51.640;5.554;2022-08-24T17:55:29;12.18;;;3.63;;
59790;SDS011;47431;51.640;5.554;2022-08-24T17:57:55;18.90;;;3.25;;
59790;SDS011;47431;51.640;5.554;2022-08-24T18:00:20;6.93;;;2.80;;
59790;SDS011;47431;51.640;5.554;2022-08-24T18:02:45;7.30;;;2.50;;
59790;SDS011;47431;51.640;5.554;2022-08-24T18:05:11;12.20;;;2.75;;
59790;SDS011;47431;51.640;5.554;2022-08-24T18:07:38;8.32;;;3.45;;
59790;SDS011;47431;51.640;5.554;2022-08-24T18:10:05;9.57;;;3.28;;
59790;SDS011;47431;51.640;5.554;2022-08-24T18:12:31;9.18;;;3.03;;
59790;SDS011;47431;51.640;5.554;2022-08-24T18:14:56;4.53;;;2.35;;
59790;SDS011;47431;51.640;5.554;2022-08-24T18:17:24;13.90;;;3.00;;
59790;SDS011;47431;51.640;5.554;2022-08-24T18:19:52;10.73;;;2.80;;